Terminal Aerodrome Forecast
Issued by NWS Cleveland, OH

Home | Current Version | Previous Version | Text Only | Print | Product List | Glossary On
Versions: 1 2 3 4 5 6 7 8 9 10 11 12 13 14 15 16 17 18 19 20
000
FTUS41 KCLE 231100
TAFERI
TAF
KERI 231126Z 2312/2412 29010G18KT P6SM VCSH BKN015 OVC025
      TEMPO 2314/2317 SCT015 OVC025
     FM231700 32014G22KT P6SM SCT045
     FM232300 32006KT P6SM SCT250=

USA.gov is the U.S. government's official web portal to all federal, state and local government web resources and services.